sensor_id;sensor_type;location;lat;lon;timestamp;P1;durP1;ratioP1;P2;durP2;ratioP2
71174;SDS011;58876;51.994;4.472;2023-05-10T00:00:31;30.59;;;30.56;;
71174;SDS011;58876;51.994;4.472;2023-05-10T00:02:56;31.11;;;30.91;;
71174;SDS011;58876;51.994;4.472;2023-05-10T00:05:22;32.16;;;31.78;;
71174;SDS011;58876;51.994;4.472;2023-05-10T00:07:47;32.14;;;31.75;;
71174;SDS011;58876;51.994;4.472;2023-05-10T00:10:13;31.91;;;31.70;;
71174;SDS011;58876;51.994;4.472;2023-05-10T00:12:38;32.14;;;31.95;;
71174;SDS011;58876;51.994;4.472;2023-05-10T00:15:04;32.25;;;32.20;;
71174;SDS011;58876;51.994;4.472;2023-05-10T00:17:30;31.69;;;31.66;;
71174;SDS011;58876;51.994;4.472;2023-05-10T00:19:56;32.61;;;32.35;;
71174;SDS011;58876;51.994;4.472;2023-05-10T00:22:21;33.05;;;32.94;;
71174;SDS011;58876;51.994;4.472;2023-05-10T00:24:47;32.64;;;32.64;;
71174;SDS011;58876;51.994;4.472;2023-05-10T00:27:12;33.26;;;33.08;;
71174;SDS011;58876;51.994;4.472;2023-05-10T00:29:38;33.59;;;33.43;;
71174;SDS011;58876;51.994;4.472;2023-05-10T00:32:03;32.93;;;32.93;;
71174;SDS011;58876;51.994;4.472;2023-05-10T00:34:29;33.64;;;33.56;;
71174;SDS011;58876;51.994;4.472;2023-05-10T00:36:54;33.54;;;33.47;;
71174;SDS011;58876;51.994;4.472;2023-05-10T00:39:19;33.46;;;33.14;;
71174;SDS011;58876;51.994;4.472;2023-05-10T00:41:45;31.71;;;31.69;;
71174;SDS011;58876;51.994;4.472;2023-05-10T00:44:10;33.10;;;32.85;;
71174;SDS011;58876;51.994;4.472;2023-05-10T00:46:36;33.15;;;33.05;;
71174;SDS011;58876;51.994;4.472;2023-05-10T00:49:02;33.74;;;33.44;;
71174;SDS011;58876;51.994;4.472;2023-05-10T00:51:27;34.29;;;33.88;;
71174;SDS011;58876;51.994;4.472;2023-05-10T00:53:53;33.11;;;32.77;;
71174;SDS011;58876;51.994;4.472;2023-05-10T00:56:21;33.92;;;33.54;;
71174;SDS011;58876;51.994;4.472;2023-05-10T00:58:48;34.30;;;33.80;;
71174;SDS011;58876;51.994;4.472;2023-05-10T01:01:14;34.60;;;33.84;;
71174;SDS011;58876;51.994;4.472;2023-05-10T01:03:40;35.35;;;34.59;;
71174;SDS011;58876;51.994;4.472;2023-05-10T01:06:05;33.47;;;33.37;;
71174;SDS011;58876;51.994;4.472;2023-05-10T01:08:31;32.93;;;32.54;;
71174;SDS011;58876;51.994;4.472;2023-05-10T01:10:57;32.69;;;31.98;;
71174;SDS011;58876;51.994;4.472;2023-05-10T01:13:30;28.71;;;28.16;;
71174;SDS011;58876;51.994;4.472;2023-05-10T01:15:58;30.98;;;30.23;;
71174;SDS011;58876;51.994;4.472;2023-05-10T01:18:27;32.16;;;31.53;;
71174;SDS011;58876;51.994;4.472;2023-05-10T01:29:22;35.17;;;34.65;;
71174;SDS011;58876;51.994;4.472;2023-05-10T01:31:58;34.51;;;33.89;;
71174;SDS011;58876;51.994;4.472;2023-05-10T01:34:47;35.42;;;34.66;;
71174;SDS011;58876;51.994;4.472;2023-05-10T01:37:47;35.68;;;35.08;;
71174;SDS011;58876;51.994;4.472;2023-05-10T01:40:26;35.77;;;35.24;;
71174;SDS011;58876;51.994;4.472;2023-05-10T01:43:16;34.58;;;33.69;;
71174;SDS011;58876;51.994;4.472;2023-05-10T01:45:50;35.61;;;34.96;;
71174;SDS011;58876;51.994;4.472;2023-05-10T01:48:41;33.29;;;32.57;;
71174;SDS011;58876;51.994;4.472;2023-05-10T01:51:16;31.36;;;30.97;;
71174;SDS011;58876;51.994;4.472;2023-05-10T01:53:48;29.30;;;28.94;;
71174;SDS011;58876;51.994;4.472;2023-05-10T01:56:22;28.32;;;27.76;;
71174;SDS011;58876;51.994;4.472;2023-05-10T01:58:51;26.24;;;25.99;;
71174;SDS011;58876;51.994;4.472;2023-05-10T02:01:20;26.34;;;26.03;;
71174;SDS011;58876;51.994;4.472;2023-05-10T02:03:47;25.26;;;25.03;;
71174;SDS011;58876;51.994;4.472;2023-05-10T02:06:16;26.02;;;25.76;;
71174;SDS011;58876;51.994;4.472;2023-05-10T02:08:45;25.65;;;25.52;;
71174;SDS011;58876;51.994;4.472;2023-05-10T02:11:13;27.77;;;27.49;;
71174;SDS011;58876;51.994;4.472;2023-05-10T02:13:39;28.09;;;27.78;;
71174;SDS011;58876;51.994;4.472;2023-05-10T02:16:06;28.88;;;28.83;;
71174;SDS011;58876;51.994;4.472;2023-05-10T02:18:33;29.62;;;29.38;;
71174;SDS011;58876;51.994;4.472;2023-05-10T02:21:01;29.78;;;29.64;;
71174;SDS011;58876;51.994;4.472;2023-05-10T02:23:28;31.22;;;30.96;;
71174;SDS011;58876;51.994;4.472;2023-05-10T02:25:55;31.66;;;31.41;;
71174;SDS011;58876;51.994;4.472;2023-05-10T02:28:23;32.69;;;32.41;;
71174;SDS011;58876;51.994;4.472;2023-05-10T02:30:51;32.02;;;31.82;;
71174;SDS011;58876;51.994;4.472;2023-05-10T02:33:19;31.19;;;31.04;;
71174;SDS011;58876;51.994;4.472;2023-05-10T02:35:46;31.52;;;31.28;;
71174;SDS011;58876;51.994;4.472;2023-05-10T02:38:13;32.12;;;32.01;;
71174;SDS011;58876;51.994;4.472;2023-05-10T02:40:41;31.86;;;31.73;;
71174;SDS011;58876;51.994;4.472;2023-05-10T02:43:09;33.93;;;33.53;;
71174;SDS011;58876;51.994;4.472;2023-05-10T02:45:39;33.78;;;33.26;;
71174;SDS011;58876;51.994;4.472;2023-05-10T02:48:06;33.73;;;33.28;;
71174;SDS011;58876;51.994;4.472;2023-05-10T02:50:33;33.18;;;32.90;;
71174;SDS011;58876;51.994;4.472;2023-05-10T02:53:00;34.00;;;33.57;;
71174;SDS011;58876;51.994;4.472;2023-05-10T02:55:40;32.94;;;32.73;;
71174;SDS011;58876;51.994;4.472;2023-05-10T02:58:10;32.58;;;32.46;;
71174;SDS011;58876;51.994;4.472;2023-05-10T03:00:36;34.09;;;33.62;;
71174;SDS011;58876;51.994;4.472;2023-05-10T03:03:01;33.12;;;32.98;;
71174;SDS011;58876;51.994;4.472;2023-05-10T03:05:27;30.55;;;30.35;;
71174;SDS011;58876;51.994;4.472;2023-05-10T03:07:53;28.92;;;28.89;;
71174;SDS011;58876;51.994;4.472;2023-05-10T03:10:20;31.24;;;31.19;;
71174;SDS011;58876;51.994;4.472;2023-05-10T03:13:01;27.82;;;27.80;;
71174;SDS011;58876;51.994;4.472;2023-05-10T03:15:42;28.02;;;28.00;;
71174;SDS011;58876;51.994;4.472;2023-05-10T03:18:23;27.23;;;27.23;;
71174;SDS011;58876;51.994;4.472;2023-05-10T03:21:02;27.39;;;27.39;;
71174;SDS011;58876;51.994;4.472;2023-05-10T03:23:40;28.16;;;28.16;;
71174;SDS011;58876;51.994;4.472;2023-05-10T03:26:09;29.30;;;29.28;;
71174;SDS011;58876;51.994;4.472;2023-05-10T03:28:45;28.10;;;27.99;;
71174;SDS011;58876;51.994;4.472;2023-05-10T03:31:13;30.35;;;30.32;;
71174;SDS011;58876;51.994;4.472;2023-05-10T03:33:49;29.91;;;29.91;;
71174;SDS011;58876;51.994;4.472;2023-05-10T03:36:17;31.69;;;31.69;;
71174;SDS011;58876;51.994;4.472;2023-05-10T03:38:43;31.74;;;31.59;;
71174;SDS011;58876;51.994;4.472;2023-05-10T03:41:08;30.45;;;30.41;;
71174;SDS011;58876;51.994;4.472;2023-05-10T03:43:34;31.41;;;31.41;;
71174;SDS011;58876;51.994;4.472;2023-05-10T03:46:03;33.05;;;33.05;;
71174;SDS011;58876;51.994;4.472;2023-05-10T03:48:29;32.25;;;32.18;;
71174;SDS011;58876;51.994;4.472;2023-05-10T03:50:55;29.85;;;29.85;;
71174;SDS011;58876;51.994;4.472;2023-05-10T03:53:20;34.60;;;34.50;;
71174;SDS011;58876;51.994;4.472;2023-05-10T03:55:46;28.97;;;28.89;;
71174;SDS011;58876;51.994;4.472;2023-05-10T03:58:11;28.70;;;28.70;;
71174;SDS011;58876;51.994;4.472;2023-05-10T04:00:37;30.59;;;30.42;;
71174;SDS011;58876;51.994;4.472;2023-05-10T04:03:02;28.45;;;28.40;;
71174;SDS011;58876;51.994;4.472;2023-05-10T04:05:28;27.69;;;27.62;;
71174;SDS011;58876;51.994;4.472;2023-05-10T04:07:53;27.01;;;26.99;;
71174;SDS011;58876;51.994;4.472;2023-05-10T04:10:19;27.66;;;27.62;;
71174;SDS011;58876;51.994;4.472;2023-05-10T04:12:45;27.17;;;27.15;;
71174;SDS011;58876;51.994;4.472;2023-05-10T04:15:11;26.97;;;26.97;;
71174;SDS011;58876;51.994;4.472;2023-05-10T04:17:36;26.50;;;26.43;;
71174;SDS011;58876;51.994;4.472;2023-05-10T04:20:02;26.37;;;25.84;;
71174;SDS011;58876;51.994;4.472;2023-05-10T04:22:28;28.12;;;27.82;;
71174;SDS011;58876;51.994;4.472;2023-05-10T04:24:54;25.77;;;25.66;;
71174;SDS011;58876;51.994;4.472;2023-05-10T04:27:19;25.95;;;25.57;;
71174;SDS011;58876;51.994;4.472;2023-05-10T04:29:45;26.92;;;26.73;;
71174;SDS011;58876;51.994;4.472;2023-05-10T04:32:10;28.00;;;27.69;;
71174;SDS011;58876;51.994;4.472;2023-05-10T04:34:36;29.67;;;29.07;;
71174;SDS011;58876;51.994;4.472;2023-05-10T04:37:02;27.45;;;27.04;;
71174;SDS011;58876;51.994;4.472;2023-05-10T04:39:27;27.68;;;27.57;;
71174;SDS011;58876;51.994;4.472;2023-05-10T04:41:53;23.10;;;22.90;;
71174;SDS011;58876;51.994;4.472;2023-05-10T04:44:18;21.57;;;21.34;;
71174;SDS011;58876;51.994;4.472;2023-05-10T04:46:43;20.56;;;20.35;;
71174;SDS011;58876;51.994;4.472;2023-05-10T04:49:09;20.70;;;20.10;;
71174;SDS011;58876;51.994;4.472;2023-05-10T04:51:34;20.12;;;19.58;;
71174;SDS011;58876;51.994;4.472;2023-05-10T04:54:00;25.80;;;25.70;;
71174;SDS011;58876;51.994;4.472;2023-05-10T04:56:25;26.52;;;26.52;;
71174;SDS011;58876;51.994;4.472;2023-05-10T04:58:51;21.92;;;21.92;;
71174;SDS011;58876;51.994;4.472;2023-05-10T05:01:16;12.95;;;12.94;;
71174;SDS011;58876;51.994;4.472;2023-05-10T05:03:42;10.15;;;10.14;;
71174;SDS011;58876;51.994;4.472;2023-05-10T05:06:07;9.42;;;9.40;;
71174;SDS011;58876;51.994;4.472;2023-05-10T05:08:33;8.43;;;8.42;;
71174;SDS011;58876;51.994;4.472;2023-05-10T05:10:58;8.41;;;8.41;;
71174;SDS011;58876;51.994;4.472;2023-05-10T05:13:24;6.27;;;6.27;;
71174;SDS011;58876;51.994;4.472;2023-05-10T05:15:49;6.67;;;6.67;;
71174;SDS011;58876;51.994;4.472;2023-05-10T05:18:15;5.44;;;5.44;;
71174;SDS011;58876;51.994;4.472;2023-05-10T05:20:40;5.96;;;5.96;;
71174;SDS011;58876;51.994;4.472;2023-05-10T05:23:06;9.90;;;9.90;;
71174;SDS011;58876;51.994;4.472;2023-05-10T05:25:31;12.55;;;12.55;;
71174;SDS011;58876;51.994;4.472;2023-05-10T05:27:57;7.36;;;7.36;;
71174;SDS011;58876;51.994;4.472;2023-05-10T05:30:22;5.44;;;5.44;;
71174;SDS011;58876;51.994;4.472;2023-05-10T05:32:47;5.41;;;5.41;;
71174;SDS011;58876;51.994;4.472;2023-05-10T05:35:13;5.69;;;5.69;;
71174;SDS011;58876;51.994;4.472;2023-05-10T05:37:38;5.25;;;5.25;;
71174;SDS011;58876;51.994;4.472;2023-05-10T05:40:04;6.86;;;6.86;;
71174;SDS011;58876;51.994;4.472;2023-05-10T05:42:31;7.29;;;7.29;;
71174;SDS011;58876;51.994;4.472;2023-05-10T05:44:57;5.65;;;5.65;;
71174;SDS011;58876;51.994;4.472;2023-05-10T05:47:22;6.25;;;6.25;;
71174;SDS011;58876;51.994;4.472;2023-05-10T05:49:48;6.84;;;6.84;;
71174;SDS011;58876;51.994;4.472;2023-05-10T05:52:13;8.65;;;8.65;;
71174;SDS011;58876;51.994;4.472;2023-05-10T05:54:38;7.14;;;7.14;;
71174;SDS011;58876;51.994;4.472;2023-05-10T05:57:04;7.40;;;7.40;;
71174;SDS011;58876;51.994;4.472;2023-05-10T05:59:29;8.83;;;8.83;;
71174;SDS011;58876;51.994;4.472;2023-05-10T06:01:55;36.15;;;36.15;;
71174;SDS011;58876;51.994;4.472;2023-05-10T06:04:20;8.23;;;8.23;;
71174;SDS011;58876;51.994;4.472;2023-05-10T06:06:46;8.25;;;8.25;;
71174;SDS011;58876;51.994;4.472;2023-05-10T06:09:11;7.92;;;7.92;;
71174;SDS011;58876;51.994;4.472;2023-05-10T06:11:37;9.84;;;9.84;;
71174;SDS011;58876;51.994;4.472;2023-05-10T06:14:03;8.57;;;8.57;;
71174;SDS011;58876;51.994;4.472;2023-05-10T06:16:32;8.62;;;8.62;;
71174;SDS011;58876;51.994;4.472;2023-05-10T06:18:57;8.03;;;8.03;;
71174;SDS011;58876;51.994;4.472;2023-05-10T06:21:23;10.51;;;10.51;;
71174;SDS011;58876;51.994;4.472;2023-05-10T06:23:48;9.27;;;9.27;;
71174;SDS011;58876;51.994;4.472;2023-05-10T06:26:14;8.94;;;8.94;;
71174;SDS011;58876;51.994;4.472;2023-05-10T06:28:39;8.78;;;8.78;;
71174;SDS011;58876;51.994;4.472;2023-05-10T06:31:06;8.03;;;8.03;;
71174;SDS011;58876;51.994;4.472;2023-05-10T06:33:32;7.82;;;7.82;;
71174;SDS011;58876;51.994;4.472;2023-05-10T06:35:58;7.96;;;7.96;;
71174;SDS011;58876;51.994;4.472;2023-05-10T06:38:23;9.56;;;9.56;;
71174;SDS011;58876;51.994;4.472;2023-05-10T06:40:49;13.59;;;13.59;;
71174;SDS011;58876;51.994;4.472;2023-05-10T06:43:15;11.36;;;11.36;;
71174;SDS011;58876;51.994;4.472;2023-05-10T06:45:41;22.50;;;22.50;;
71174;SDS011;58876;51.994;4.472;2023-05-10T06:48:06;15.94;;;15.94;;
71174;SDS011;58876;51.994;4.472;2023-05-10T06:50:32;11.82;;;11.82;;
71174;SDS011;58876;51.994;4.472;2023-05-10T06:52:58;15.59;;;15.59;;
71174;SDS011;58876;51.994;4.472;2023-05-10T06:55:24;14.01;;;14.01;;
71174;SDS011;58876;51.994;4.472;2023-05-10T06:57:49;23.39;;;23.39;;
71174;SDS011;58876;51.994;4.472;2023-05-10T07:00:16;21.22;;;21.22;;
71174;SDS011;58876;51.994;4.472;2023-05-10T07:02:41;27.22;;;27.22;;
71174;SDS011;58876;51.994;4.472;2023-05-10T07:05:07;21.70;;;21.70;;
71174;SDS011;58876;51.994;4.472;2023-05-10T07:07:33;28.07;;;28.07;;
71174;SDS011;58876;51.994;4.472;2023-05-10T07:10:00;31.48;;;31.48;;
71174;SDS011;58876;51.994;4.472;2023-05-10T07:12:25;35.17;;;35.17;;
71174;SDS011;58876;51.994;4.472;2023-05-10T07:14:51;36.47;;;36.47;;
71174;SDS011;58876;51.994;4.472;2023-05-10T07:17:16;36.34;;;36.34;;
71174;SDS011;58876;51.994;4.472;2023-05-10T07:19:42;28.84;;;28.84;;
71174;SDS011;58876;51.994;4.472;2023-05-10T07:22:07;25.25;;;25.25;;
71174;SDS011;58876;51.994;4.472;2023-05-10T07:24:33;24.86;;;24.86;;
71174;SDS011;58876;51.994;4.472;2023-05-10T07:26:58;21.14;;;21.14;;
71174;SDS011;58876;51.994;4.472;2023-05-10T07:29:24;23.39;;;23.39;;
71174;SDS011;58876;51.994;4.472;2023-05-10T07:31:50;28.13;;;28.13;;
71174;SDS011;58876;51.994;4.472;2023-05-10T07:34:15;26.88;;;26.88;;
71174;SDS011;58876;51.994;4.472;2023-05-10T07:36:41;14.67;;;14.67;;
71174;SDS011;58876;51.994;4.472;2023-05-10T07:39:06;21.93;;;21.93;;
71174;SDS011;58876;51.994;4.472;2023-05-10T07:41:32;22.01;;;22.01;;
71174;SDS011;58876;51.994;4.472;2023-05-10T07:43:58;28.69;;;28.69;;
71174;SDS011;58876;51.994;4.472;2023-05-10T07:46:23;14.07;;;14.07;;
71174;SDS011;58876;51.994;4.472;2023-05-10T07:48:48;12.10;;;12.10;;
71174;SDS011;58876;51.994;4.472;2023-05-10T07:51:14;15.36;;;15.36;;
71174;SDS011;58876;51.994;4.472;2023-05-10T07:53:39;18.59;;;18.59;;
71174;SDS011;58876;51.994;4.472;2023-05-10T07:58:51;19.38;;;19.38;;
71174;SDS011;58876;51.994;4.472;2023-05-10T08:01:17;19.25;;;19.25;;
71174;SDS011;58876;51.994;4.472;2023-05-10T08:03:42;14.02;;;14.02;;
71174;SDS011;58876;51.994;4.472;2023-05-10T08:06:08;10.55;;;10.55;;
71174;SDS011;58876;51.994;4.472;2023-05-10T08:08:34;11.72;;;11.72;;
71174;SDS011;58876;51.994;4.472;2023-05-10T08:10:59;13.14;;;13.14;;
71174;SDS011;58876;51.994;4.472;2023-05-10T08:13:24;19.79;;;19.79;;
71174;SDS011;58876;51.994;4.472;2023-05-10T08:15:50;17.46;;;17.46;;
71174;SDS011;58876;51.994;4.472;2023-05-10T08:18:18;24.58;;;24.58;;
71174;SDS011;58876;51.994;4.472;2023-05-10T08:20:43;20.98;;;20.98;;
71174;SDS011;58876;51.994;4.472;2023-05-10T08:23:09;16.78;;;16.78;;
71174;SDS011;58876;51.994;4.472;2023-05-10T08:25:34;23.40;;;23.40;;
71174;SDS011;58876;51.994;4.472;2023-05-10T08:28:00;25.21;;;25.21;;
71174;SDS011;58876;51.994;4.472;2023-05-10T08:30:25;14.88;;;14.88;;
71174;SDS011;58876;51.994;4.472;2023-05-10T08:32:51;18.85;;;18.85;;
71174;SDS011;58876;51.994;4.472;2023-05-10T08:35:16;24.46;;;24.46;;
71174;SDS011;58876;51.994;4.472;2023-05-10T08:37:42;23.34;;;23.34;;
71174;SDS011;58876;51.994;4.472;2023-05-10T08:40:07;30.86;;;30.86;;
71174;SDS011;58876;51.994;4.472;2023-05-10T08:42:36;54.35;;;54.35;;
71174;SDS011;58876;51.994;4.472;2023-05-10T08:45:06;22.58;;;22.58;;
71174;SDS011;58876;51.994;4.472;2023-05-10T08:47:33;26.61;;;26.61;;
71174;SDS011;58876;51.994;4.472;2023-05-10T08:50:01;13.41;;;13.41;;
71174;SDS011;58876;51.994;4.472;2023-05-10T08:52:28;18.26;;;18.26;;
71174;SDS011;58876;51.994;4.472;2023-05-10T08:54:57;13.57;;;13.57;;
71174;SDS011;58876;51.994;4.472;2023-05-10T08:57:23;17.55;;;17.55;;
71174;SDS011;58876;51.994;4.472;2023-05-10T08:59:49;17.32;;;17.32;;
71174;SDS011;58876;51.994;4.472;2023-05-10T09:02:14;17.95;;;17.95;;
71174;SDS011;58876;51.994;4.472;2023-05-10T09:04:43;18.13;;;18.13;;
71174;SDS011;58876;51.994;4.472;2023-05-10T09:07:08;20.91;;;20.91;;
71174;SDS011;58876;51.994;4.472;2023-05-10T09:09:35;21.81;;;21.81;;
71174;SDS011;58876;51.994;4.472;2023-05-10T09:12:02;26.63;;;26.63;;
71174;SDS011;58876;51.994;4.472;2023-05-10T09:14:28;34.84;;;34.84;;
71174;SDS011;58876;51.994;4.472;2023-05-10T09:16:54;28.58;;;28.58;;
71174;SDS011;58876;51.994;4.472;2023-05-10T09:19:20;28.50;;;28.50;;
71174;SDS011;58876;51.994;4.472;2023-05-10T09:21:45;29.12;;;29.12;;
71174;SDS011;58876;51.994;4.472;2023-05-10T09:24:11;33.27;;;33.27;;
71174;SDS011;58876;51.994;4.472;2023-05-10T09:26:45;53.31;;;53.31;;
71174;SDS011;58876;51.994;4.472;2023-05-10T09:29:13;51.94;;;51.94;;
71174;SDS011;58876;51.994;4.472;2023-05-10T09:31:46;48.96;;;48.96;;
71174;SDS011;58876;51.994;4.472;2023-05-10T09:34:19;45.18;;;45.18;;
71174;SDS011;58876;51.994;4.472;2023-05-10T09:37:01;46.98;;;46.98;;
71174;SDS011;58876;51.994;4.472;2023-05-10T09:39:35;69.50;;;69.50;;
71174;SDS011;58876;51.994;4.472;2023-05-10T09:42:06;83.99;;;83.99;;
71174;SDS011;58876;51.994;4.472;2023-05-10T09:44:34;109.39;;;109.39;;
71174;SDS011;58876;51.994;4.472;2023-05-10T09:47:03;65.73;;;65.73;;
71174;SDS011;58876;51.994;4.472;2023-05-10T09:49:29;69.19;;;69.19;;
71174;SDS011;58876;51.994;4.472;2023-05-10T09:52:02;115.22;;;115.22;;
71174;SDS011;58876;51.994;4.472;2023-05-10T09:54:29;135.93;;;135.93;;
71174;SDS011;58876;51.994;4.472;2023-05-10T09:56:56;114.52;;;114.52;;
71174;SDS011;58876;51.994;4.472;2023-05-10T09:59:21;215.71;;;215.09;;
71174;SDS011;58876;51.994;4.472;2023-05-10T10:01:51;162.62;;;162.62;;
71174;SDS011;58876;51.994;4.472;2023-05-10T10:04:19;118.34;;;118.34;;
71174;SDS011;58876;51.994;4.472;2023-05-10T10:06:46;100.71;;;100.71;;
71174;SDS011;58876;51.994;4.472;2023-05-10T10:09:12;78.52;;;78.52;;
71174;SDS011;58876;51.994;4.472;2023-05-10T10:11:39;82.60;;;82.60;;
71174;SDS011;58876;51.994;4.472;2023-05-10T10:14:05;98.73;;;98.73;;
71174;SDS011;58876;51.994;4.472;2023-05-10T10:16:31;109.10;;;109.10;;
71174;SDS011;58876;51.994;4.472;2023-05-10T10:18:57;63.12;;;63.12;;
71174;SDS011;58876;51.994;4.472;2023-05-10T10:21:23;60.73;;;60.73;;
71174;SDS011;58876;51.994;4.472;2023-05-10T10:23:49;48.85;;;48.85;;
71174;SDS011;58876;51.994;4.472;2023-05-10T10:26:16;53.51;;;53.51;;
71174;SDS011;58876;51.994;4.472;2023-05-10T10:31:39;74.75;;;74.75;;
71174;SDS011;58876;51.994;4.472;2023-05-10T10:34:18;69.06;;;69.06;;
71174;SDS011;58876;51.994;4.472;2023-05-10T10:36:53;61.06;;;61.06;;
71174;SDS011;58876;51.994;4.472;2023-05-10T10:39:21;42.82;;;42.82;;
71174;SDS011;58876;51.994;4.472;2023-05-10T10:41:56;43.31;;;43.31;;
71174;SDS011;58876;51.994;4.472;2023-05-10T10:44:33;41.55;;;41.55;;
71174;SDS011;58876;51.994;4.472;2023-05-10T10:49:49;40.25;;;40.25;;
71174;SDS011;58876;51.994;4.472;2023-05-10T10:52:35;30.65;;;30.65;;
71174;SDS011;58876;51.994;4.472;2023-05-10T10:55:06;29.42;;;29.42;;
71174;SDS011;58876;51.994;4.472;2023-05-10T11:07:58;43.71;;;43.71;;
71174;SDS011;58876;51.994;4.472;2023-05-10T11:10:25;28.21;;;28.21;;
71174;SDS011;58876;51.994;4.472;2023-05-10T11:13:08;28.54;;;28.54;;
71174;SDS011;58876;51.994;4.472;2023-05-10T11:15:36;75.91;;;75.91;;
71174;SDS011;58876;51.994;4.472;2023-05-10T11:20:51;21.80;;;21.80;;
71174;SDS011;58876;51.994;4.472;2023-05-10T11:23:21;23.74;;;23.74;;
71174;SDS011;58876;51.994;4.472;2023-05-10T11:25:47;20.17;;;20.17;;
71174;SDS011;58876;51.994;4.472;2023-05-10T11:28:14;24.96;;;24.96;;
71174;SDS011;58876;51.994;4.472;2023-05-10T11:30:43;15.87;;;15.87;;
71174;SDS011;58876;51.994;4.472;2023-05-10T11:33:10;15.38;;;15.38;;
71174;SDS011;58876;51.994;4.472;2023-05-10T11:35:42;18.56;;;18.56;;
71174;SDS011;58876;51.994;4.472;2023-05-10T11:38:08;15.51;;;15.51;;
71174;SDS011;58876;51.994;4.472;2023-05-10T11:40:35;14.08;;;14.08;;
71174;SDS011;58876;51.994;4.472;2023-05-10T11:43:01;16.34;;;16.34;;
71174;SDS011;58876;51.994;4.472;2023-05-10T11:45:28;29.70;;;29.70;;
71174;SDS011;58876;51.994;4.472;2023-05-10T11:47:57;51.30;;;51.30;;
71174;SDS011;58876;51.994;4.472;2023-05-10T11:50:24;10.71;;;10.71;;
71174;SDS011;58876;51.994;4.472;2023-05-10T11:52:54;9.66;;;9.66;;
71174;SDS011;58876;51.994;4.472;2023-05-10T11:55:20;8.81;;;8.81;;
71174;SDS011;58876;51.994;4.472;2023-05-10T11:57:47;8.85;;;8.85;;
71174;SDS011;58876;51.994;4.472;2023-05-10T12:00:13;9.54;;;9.54;;
71174;SDS011;58876;51.994;4.472;2023-05-10T12:02:39;8.89;;;8.89;;
71174;SDS011;58876;51.994;4.472;2023-05-10T12:05:04;9.10;;;9.10;;
71174;SDS011;58876;51.994;4.472;2023-05-10T12:07:32;53.63;;;45.01;;
71174;SDS011;58876;51.994;4.472;2023-05-10T12:10:10;13.16;;;12.27;;
71174;SDS011;58876;51.994;4.472;2023-05-10T12:12:43;7.93;;;7.93;;
71174;SDS011;58876;51.994;4.472;2023-05-10T12:15:17;7.91;;;7.91;;
71174;SDS011;58876;51.994;4.472;2023-05-10T12:17:45;8.77;;;8.77;;
71174;SDS011;58876;51.994;4.472;2023-05-10T12:20:14;8.42;;;8.42;;
71174;SDS011;58876;51.994;4.472;2023-05-10T12:22:52;8.12;;;8.12;;
71174;SDS011;58876;51.994;4.472;2023-05-10T12:25:20;7.87;;;7.87;;
71174;SDS011;58876;51.994;4.472;2023-05-10T12:27:48;10.24;;;10.24;;
71174;SDS011;58876;51.994;4.472;2023-05-10T12:30:34;18.21;;;18.21;;
71174;SDS011;58876;51.994;4.472;2023-05-10T12:33:02;8.70;;;8.70;;
71174;SDS011;58876;51.994;4.472;2023-05-10T12:35:31;8.07;;;8.07;;
71174;SDS011;58876;51.994;4.472;2023-05-10T12:37:57;8.57;;;8.57;;
71174;SDS011;58876;51.994;4.472;2023-05-10T12:40:23;8.37;;;8.37;;
71174;SDS011;58876;51.994;4.472;2023-05-10T12:42:48;8.12;;;8.12;;
71174;SDS011;58876;51.994;4.472;2023-05-10T12:45:14;10.83;;;10.83;;
71174;SDS011;58876;51.994;4.472;2023-05-10T12:47:39;12.31;;;12.31;;
71174;SDS011;58876;51.994;4.472;2023-05-10T12:50:05;10.07;;;10.07;;
71174;SDS011;58876;51.994;4.472;2023-05-10T12:52:31;7.39;;;7.39;;
71174;SDS011;58876;51.994;4.472;2023-05-10T12:54:57;6.88;;;6.88;;
71174;SDS011;58876;51.994;4.472;2023-05-10T12:57:24;7.08;;;7.08;;
71174;SDS011;58876;51.994;4.472;2023-05-10T12:59:49;6.74;;;6.74;;
71174;SDS011;58876;51.994;4.472;2023-05-10T13:02:15;5.77;;;5.77;;
71174;SDS011;58876;51.994;4.472;2023-05-10T13:04:46;5.32;;;5.32;;
71174;SDS011;58876;51.994;4.472;2023-05-10T13:07:12;7.65;;;7.65;;
71174;SDS011;58876;51.994;4.472;2023-05-10T13:09:38;4.65;;;4.65;;
71174;SDS011;58876;51.994;4.472;2023-05-10T13:12:04;5.00;;;5.00;;
71174;SDS011;58876;51.994;4.472;2023-05-10T13:14:30;5.12;;;5.12;;
71174;SDS011;58876;51.994;4.472;2023-05-10T13:16:56;5.00;;;5.00;;
71174;SDS011;58876;51.994;4.472;2023-05-10T13:19:21;4.26;;;4.26;;
71174;SDS011;58876;51.994;4.472;2023-05-10T13:21:47;4.55;;;4.55;;
71174;SDS011;58876;51.994;4.472;2023-05-10T13:24:12;5.12;;;5.12;;
71174;SDS011;58876;51.994;4.472;2023-05-10T13:26:39;5.30;;;5.30;;
71174;SDS011;58876;51.994;4.472;2023-05-10T13:29:05;5.09;;;5.09;;
71174;SDS011;58876;51.994;4.472;2023-05-10T13:31:32;5.60;;;5.60;;
71174;SDS011;58876;51.994;4.472;2023-05-10T13:33:58;6.10;;;6.10;;
71174;SDS011;58876;51.994;4.472;2023-05-10T13:36:24;5.60;;;5.60;;
71174;SDS011;58876;51.994;4.472;2023-05-10T13:38:49;5.42;;;5.42;;
71174;SDS011;58876;51.994;4.472;2023-05-10T13:41:14;5.60;;;5.60;;
71174;SDS011;58876;51.994;4.472;2023-05-10T13:43:40;5.33;;;5.33;;
71174;SDS011;58876;51.994;4.472;2023-05-10T13:46:05;5.38;;;5.38;;
71174;SDS011;58876;51.994;4.472;2023-05-10T13:48:31;6.84;;;6.84;;
71174;SDS011;58876;51.994;4.472;2023-05-10T13:50:57;5.45;;;5.45;;
71174;SDS011;58876;51.994;4.472;2023-05-10T13:53:23;13.45;;;13.45;;
71174;SDS011;58876;51.994;4.472;2023-05-10T13:55:48;35.05;;;35.05;;
71174;SDS011;58876;51.994;4.472;2023-05-10T13:58:14;5.11;;;5.11;;
71174;SDS011;58876;51.994;4.472;2023-05-10T14:00:40;5.16;;;5.16;;
71174;SDS011;58876;51.994;4.472;2023-05-10T14:03:05;5.70;;;5.70;;
71174;SDS011;58876;51.994;4.472;2023-05-10T14:05:32;5.78;;;5.78;;
71174;SDS011;58876;51.994;4.472;2023-05-10T14:07:57;5.66;;;5.66;;
71174;SDS011;58876;51.994;4.472;2023-05-10T14:10:23;4.54;;;4.54;;
71174;SDS011;58876;51.994;4.472;2023-05-10T14:12:49;5.14;;;5.14;;
71174;SDS011;58876;51.994;4.472;2023-05-10T14:15:15;6.38;;;6.38;;
71174;SDS011;58876;51.994;4.472;2023-05-10T14:17:40;5.73;;;5.73;;
71174;SDS011;58876;51.994;4.472;2023-05-10T14:20:06;6.34;;;6.34;;
71174;SDS011;58876;51.994;4.472;2023-05-10T14:22:32;6.36;;;6.36;;
71174;SDS011;58876;51.994;4.472;2023-05-10T14:24:57;6.24;;;6.24;;
71174;SDS011;58876;51.994;4.472;2023-05-10T14:27:23;6.49;;;6.49;;
71174;SDS011;58876;51.994;4.472;2023-05-10T14:29:48;6.22;;;6.22;;
71174;SDS011;58876;51.994;4.472;2023-05-10T14:32:14;6.10;;;6.10;;
71174;SDS011;58876;51.994;4.472;2023-05-10T14:34:39;6.19;;;6.19;;
71174;SDS011;58876;51.994;4.472;2023-05-10T14:37:05;6.09;;;6.09;;
71174;SDS011;58876;51.994;4.472;2023-05-10T14:39:31;5.87;;;5.87;;
71174;SDS011;58876;51.994;4.472;2023-05-10T14:41:56;5.37;;;5.37;;
71174;SDS011;58876;51.994;4.472;2023-05-10T14:44:21;5.20;;;5.20;;
71174;SDS011;58876;51.994;4.472;2023-05-10T14:46:47;5.64;;;5.64;;
71174;SDS011;58876;51.994;4.472;2023-05-10T14:49:13;5.41;;;5.41;;
71174;SDS011;58876;51.994;4.472;2023-05-10T14:51:39;5.75;;;5.75;;
71174;SDS011;58876;51.994;4.472;2023-05-10T14:54:04;5.21;;;5.21;;
71174;SDS011;58876;51.994;4.472;2023-05-10T14:56:31;4.85;;;4.85;;
71174;SDS011;58876;51.994;4.472;2023-05-10T14:58:57;5.17;;;5.17;;